^^
Station Historical Data
Daily Summary for April 21, 2017 Units:  Metric    English   Both
« Previous Day
Next Day »
Daily Weekly Monthly Yearly Custom
  High: Low: Average:
Temperature: 26.8 °C 12.3 °C 18.7 °C
Dew Point: 16.9 °C 11.8 °C 14.8 °C
Humidity: 98% 46% 81%
Wind Speed: 6.4km/h 0km/h 0.5km/h
Wind Gust: 12.9km/h - -
Wind- - ESE
Pressure: 1021.2 hPa 1014.4 hPa -
Precipitation: 10.16 mm    
Historical Graphs
 
 
Tabular Data for April 21, 2017
Time Temperature Dew Point Pressure Wind Wind Speed Wind Gust Humidity Rainfall Rate (Hourly)
00:03 18.4 °C 14.3 °C 1021.2 hPa Calm     77% 0 mm
00:08 18.3 °C 14.6 °C 1021.2 hPa Calm     79% 0 mm
00:13 18.1 °C 14.6 °C 1020.9 hPa Calm     80% 0 mm
00:18 17.7 °C 14.4 °C 1020.9 hPa Calm     81% 0 mm
00:23 17.4 °C 14.3 °C 1020.9 hPa Calm     82% 0 mm
00:28 17.3 °C 14.4 °C 1020.9 hPa Calm     83% 0 mm
00:33 17.1 °C 14.4 °C 1020.9 hPa Calm     84% 0 mm
00:43 16.7 °C 14.3 °C 1020.9 hPa Calm     86% 0 mm
00:48 16.6 °C 14.2 °C 1020.9 hPa Calm     86% 0 mm
00:53 16.6 °C 14.2 °C 1021.2 hPa Calm     86% 0 mm
00:58 16.4 °C 14.1 °C 1021.2 hPa Calm     86% 0 mm
01:03 16.2 °C 14 °C 1021.2 hPa Calm     87% 0 mm
01:08 16.2 °C 14.2 °C 1021.2 hPa Calm     88% 0 mm
01:13 16.3 °C 14.3 °C 1021.2 hPa Calm     88% 0 mm
01:18 16.2 °C 14.2 °C 1020.9 hPa Calm     88% 0 mm
01:23 16.1 °C 14.1 °C 1020.9 hPa Calm     88% 0 mm
01:28 16.1 °C 14.3 °C 1020.9 hPa Calm     89% 0 mm
01:38 16 °C 14 °C 1020.9 hPa Calm     88% 0 mm
01:43 15.9 °C 13.9 °C 1020.5 hPa Calm     88% 0 mm
01:48 15.6 °C 13.8 °C 1020.9 hPa Calm     89% 0 mm
01:53 15.4 °C 13.8 °C 1020.5 hPa Calm     90% 0 mm
01:58 15.2 °C 13.7 °C 1020.9 hPa Calm   1.6 km/h 91% 0 mm
02:03 15.2 °C 13.7 °C 1020.5 hPa Calm     91% 0 mm
02:08 15.2 °C 13.7 °C 1020.5 hPa Calm     91% 0 mm
02:13 15.2 °C 13.9 °C 1020.5 hPa Calm     92% 0 mm
02:18 15.1 °C 13.8 °C 1020.5 hPa Calm     92% 0 mm
02:23 14.9 °C 13.4 °C 1020.5 hPa Calm     91% 0 mm
02:28 14.8 °C 13.3 °C 1020.5 hPa Calm     91% 0 mm
02:33 14.7 °C 13.6 °C 1020.5 hPa Calm     93% 0 mm
02:38 14.7 °C 13.6 °C 1020.5 hPa Calm     93% 0 mm
02:43 14.7 °C 13.6 °C 1020.5 hPa Calm     93% 0 mm
02:48 14.7 °C 13.6 °C 1020.5 hPa Calm     93% 0 mm
02:53 14.7 °C 13.6 °C 1020.2 hPa Calm     93% 0 mm
02:58 14.7 °C 13.6 °C 1020.2 hPa Calm     93% 0 mm
03:03 14.6 °C 13.5 °C 1020.2 hPa Calm     93% 0 mm
03:09 14.5 °C 13.4 °C 1020.2 hPa Calm     93% 0 mm
03:14 14.4 °C 13.3 °C 1019.9 hPa Calm   1.6 km/h 93% 0 mm
03:19 14.4 °C 13.3 °C 1019.9 hPa Calm   1.6 km/h 93% 0 mm
03:24 14.4 °C 13.3 °C 1019.9 hPa SSW 1.4 km/h 3.2 km/h 93% 0 mm
03:26 14.4 °C 13.3 °C 1019.9 hPa SSW 1.4 km/h 1.6 km/h 93% 0 mm
03:31 14.5 °C 13.4 °C 1019.9 hPa Calm   1.6 km/h 93% 0 mm
03:36 14.4 °C 13.3 °C 1019.9 hPa Calm   1.6 km/h 93% 0 mm
03:41 14.4 °C 13.4 °C 1019.9 hPa WSW 1.4 km/h 1.6 km/h 94% 0 mm
03:46 14.3 °C 13.3 °C 1019.5 hPa Calm   1.6 km/h 94% 0 mm
03:51 14.3 °C 13.3 °C 1019.9 hPa Calm     94% 0 mm
03:56 14.1 °C 13 °C 1019.9 hPa Calm     93% 0 mm
04:01 14 °C 13.2 °C 1019.9 hPa Calm     95% 0 mm
04:11 13.8 °C 12.9 °C 1019.9 hPa Calm     94% 0 mm
04:16 13.7 °C 12.8 °C 1019.9 hPa Calm     94% 0 mm
04:21 13.8 °C 13 °C 1019.9 hPa Calm     95% 0 mm
04:26 13.8 °C 13 °C 1019.9 hPa Calm     95% 0 mm
04:31 13.7 °C 12.9 °C 1019.9 hPa Calm     95% 0 mm
04:41 13.5 °C 12.7 °C 1019.9 hPa Calm     95% 0 mm
04:46 13.4 °C 12.6 °C 1019.9 hPa Calm     95% 0 mm
04:51 13.5 °C 12.9 °C 1019.9 hPa Calm   1.6 km/h 96% 0 mm
04:56 13.6 °C 13 °C 1019.9 hPa Calm     96% 0 mm
05:02 13.4 °C 12.8 °C 1019.9 hPa Calm     96% 0 mm
05:07 13.4 °C 12.8 °C 1019.9 hPa Calm     96% 0 mm
05:12 13.4 °C 12.8 °C 1019.5 hPa Calm     96% 0 mm
05:17 13.4 °C 12.8 °C 1019.5 hPa Calm     96% 0 mm
05:22 13.4 °C 12.8 °C 1019.9 hPa Calm     96% 0 mm
05:27 13.4 °C 12.9 °C 1019.9 hPa Calm     97% 0 mm
05:32 13.4 °C 12.8 °C 1019.9 hPa Calm     96% 0 mm
05:37 13.3 °C 12.7 °C 1019.5 hPa Calm     96% 0 mm
05:42 13.3 °C 12.7 °C 1019.5 hPa Calm     96% 0 mm
05:47 13.2 °C 12.6 °C 1019.5 hPa Calm     96% 0 mm
05:52 13.1 °C 12.5 °C 1019.9 hPa Calm     96% 0 mm
05:57 12.9 °C 12.3 °C 1019.9 hPa Calm     96% 0 mm
06:02 13 °C 12.5 °C 1019.5 hPa Calm     97% 0 mm
06:07 13 °C 12.5 °C 1019.5 hPa Calm     97% 0 mm
06:12 13 °C 12.5 °C 1019.9 hPa Calm   1.6 km/h 97% 0 mm
06:17 13 °C 12.5 °C 1019.5 hPa Calm   1.6 km/h 97% 0 mm
06:22 13 °C 12.5 °C 1019.5 hPa Calm   1.6 km/h 97% 0 mm
06:27 13 °C 12.5 °C 1019.9 hPa Calm     97% 0 mm
06:32 12.9 °C 12.4 °C 1019.9 hPa Calm   1.6 km/h 97% 0 mm
06:37 12.9 °C 12.4 °C 1019.9 hPa Calm     97% 0 mm
06:42 12.8 °C 12.2 °C 1019.9 hPa Calm     96% 0 mm
06:47 12.8 °C 12.3 °C 1019.9 hPa Calm   1.6 km/h 97% 0 mm
06:52 12.7 °C 12.2 °C 1019.9 hPa Calm     97% 0 mm
06:57 12.7 °C 12.2 °C 1019.9 hPa Calm   1.6 km/h 97% 0 mm
07:02 12.8 °C 12.3 °C 1019.9 hPa Calm   1.6 km/h 97% 0 mm
07:07 12.8 °C 12.3 °C 1019.9 hPa Calm     97% 0 mm
07:12 12.7 °C 12.2 °C 1020.2 hPa Calm   1.6 km/h 97% 0 mm
07:17 12.6 °C 12.1 °C 1020.2 hPa Calm     97% 0 mm
07:22 12.6 °C 12.1 °C 1020.2 hPa Calm   1.6 km/h 97% 0 mm
07:27 12.5 °C 12 °C 1020.2 hPa Calm     97% 0 mm
07:32 12.5 °C 12 °C 1020.2 hPa Calm   1.6 km/h 97% 0 mm
07:37 12.3 °C 11.8 °C 1020.2 hPa Calm     97% 0 mm
07:42 12.4 °C 11.9 °C 1020.2 hPa Calm     97% 0 mm
07:47 12.6 °C 12.1 °C 1020.2 hPa Calm     97% 0 mm
07:52 12.6 °C 12.1 °C 1020.2 hPa Calm     97% 0 mm
07:58 12.8 °C 12.3 °C 1020.2 hPa Calm     97% 0 mm
08:03 12.9 °C 12.4 °C 1020.2 hPa Calm   1.6 km/h 97% 0 mm
08:08 13.2 °C 12.7 °C 1020.2 hPa Calm     97% 0 mm
08:13 13.5 °C 13 °C 1020.2 hPa Calm     97% 0 mm
08:18 13.8 °C 13.3 °C 1020.2 hPa Calm     97% 0 mm
08:23 14.1 °C 13.3 °C 1020.2 hPa Calm     95% 0 mm
08:28 14.4 °C 13.4 °C 1020.2 hPa Calm   1.6 km/h 94% 0 mm
08:33 14.8 °C 13.7 °C 1019.9 hPa Calm     93% 0 mm
08:38 15.3 °C 14 °C 1019.9 hPa ESE 1.4 km/h 1.6 km/h 92% 0 mm
08:43 15.6 °C 14.1 °C 1019.9 hPa East 1.4 km/h 3.2 km/h 91% 0 mm
08:48 15.9 °C 14.3 °C 1019.9 hPa Calm   1.6 km/h 90% 0 mm
08:53 16.4 °C 14.4 °C 1019.9 hPa Calm   3.2 km/h 88% 0 mm
08:58 17 °C 14.8 °C 1019.9 hPa Calm     87% 0 mm
09:03 17.4 °C 15 °C 1019.5 hPa Calm   1.6 km/h 86% 0 mm
09:08 17.7 °C 15.1 °C 1019.9 hPa Calm   1.6 km/h 85% 0 mm
09:13 18.2 °C 15.5 °C 1019.5 hPa Calm   1.6 km/h 84% 0 mm
09:18 18.6 °C 15.7 °C 1019.5 hPa East 1.4 km/h 1.6 km/h 83% 0 mm
09:23 18.7 °C 15.4 °C 1019.5 hPa ENE 1.4 km/h 3.2 km/h 81% 0 mm
09:24 18.7 °C 15.4 °C 1019.5 hPa Calm   1.6 km/h 81% 0 mm
09:29 18.7 °C 15.2 °C 1019.5 hPa East 1.4 km/h 1.6 km/h 80% 0 mm
09:34 18.9 °C 15.4 °C 1019.5 hPa East 1.4 km/h 3.2 km/h 80% 0 mm
09:40 19.3 °C 15.4 °C 1019.5 hPa Calm   3.2 km/h 78% 0 mm
09:45 19.6 °C 15.5 °C 1019.2 hPa Calm   3.2 km/h 77% 0 mm
09:50 20.1 °C 16.1 °C 1019.2 hPa East 1.4 km/h 3.2 km/h 78% 0 mm
10:00 21 °C 16 °C 1019.2 hPa Calm   3.2 km/h 73% 0 mm
10:05 21.4 °C 16.1 °C 1019.2 hPa Calm   3.2 km/h 72% 0 mm
10:10 21.7 °C 16 °C 1019.2 hPa Calm   3.2 km/h 70% 0 mm
10:15 21.7 °C 16 °C 1019.2 hPa Calm   4.8 km/h 70% 0 mm
10:20 21.7 °C 16.2 °C 1019.2 hPa Calm   3.2 km/h 71% 0 mm
10:25 21.8 °C 16.5 °C 1018.8 hPa East 1.4 km/h 1.6 km/h 72% 0 mm
10:30 22.7 °C 16.9 °C 1019.2 hPa Calm   1.6 km/h 70% 0 mm
10:35 23.3 °C 16.6 °C 1018.8 hPa Calm   4.8 km/h 66% 0 mm
10:40 23.6 °C 16.6 °C 1018.8 hPa Calm   3.2 km/h 65% 0 mm
10:45 24.2 °C 16.7 °C 1018.8 hPa Calm   3.2 km/h 63% 0 mm
10:50 24.4 °C 16.4 °C 1018.8 hPa WNW 1.4 km/h 3.2 km/h 61% 0 mm
10:55 25 °C 16.2 °C 1018.8 hPa Calm   1.6 km/h 58% 0 mm
11:00 25.4 °C 16.5 °C 1018.8 hPa East 3.2 km/h 4.8 km/h 58% 0 mm
11:05 25.3 °C 15.9 °C 1018.8 hPa ENE 3.2 km/h 6.4 km/h 56% 0 mm
11:10 25.2 °C 16.6 °C 1018.5 hPa ENE 1.4 km/h 3.2 km/h 59% 0 mm
11:15 25.2 °C 15.5 °C 1018.5 hPa ESE 3.2 km/h 6.4 km/h 55% 0 mm
11:20 24.9 °C 16.1 °C 1018.5 hPa ENE 1.4 km/h 4.8 km/h 58% 0 mm
11:25 25.3 °C 16.7 °C 1018.5 hPa ENE 1.4 km/h 1.6 km/h 59% 0 mm
11:30 25.9 °C 16.2 °C 1018.5 hPa East 1.4 km/h 3.2 km/h 55% 0 mm
11:35 25.8 °C 16.1 °C 1018.5 hPa ENE 4.7 km/h 6.4 km/h 55% 0 mm
11:40 26.1 °C 16.4 °C 1018.5 hPa NE 1.4 km/h 3.2 km/h 55% 0 mm
11:45 26.3 °C 16 °C 1018.5 hPa ENE 3.2 km/h 4.8 km/h 53% 0 mm
11:50 25.8 °C 15.2 °C 1018.5 hPa ENE 3.2 km/h 8 km/h 52% 0 mm
11:55 25.7 °C 15.4 °C 1018.5 hPa NNE 1.4 km/h 3.2 km/h 53% 0 mm
12:00 25.3 °C 15.6 °C 1018.5 hPa ENE 3.2 km/h 4.8 km/h 55% 0 mm
12:10 24.6 °C 15.2 °C 1018.5 hPa ENE 1.4 km/h 1.6 km/h 56% 0 mm
12:15 24.4 °C 15.1 °C 1018.5 hPa ENE 1.4 km/h 3.2 km/h 56% 0 mm
12:20 24.8 °C 15.7 °C 1018.5 hPa ENE 3.2 km/h 3.2 km/h 57% 0 mm
12:25 25.4 °C 15.1 °C 1018.2 hPa SE 3.2 km/h 3.2 km/h 53% 0 mm
12:30 25.7 °C 15.1 °C 1018.2 hPa East 1.4 km/h 6.4 km/h 52% 0 mm
12:35 25.2 °C 14.9 °C 1018.2 hPa Calm     53% 0 mm
12:40 25.3 °C 15.9 °C 1018.2 hPa NE 4.7 km/h 4.8 km/h 56% 0 mm
12:46 25.4 °C 15.1 °C 1017.8 hPa Calm     53% 0 mm
12:51 26.1 °C 15.2 °C 1017.8 hPa NW 3.2 km/h 4.8 km/h 51% 0 mm
12:56 26.1 °C 15.2 °C 1017.8 hPa SSE 6.4 km/h 6.4 km/h 51% 0 mm
13:01 26 °C 14.8 °C 1017.5 hPa East 1.4 km/h 6.4 km/h 50% 0 mm
13:06 26.2 °C 15.3 °C 1017.5 hPa Calm     51% 0 mm
13:11 26.6 °C 14.7 °C 1017.5 hPa Calm   1.6 km/h 48% 0 mm
13:16 26.4 °C 14.8 °C 1017.2 hPa NE 1.4 km/h 3.2 km/h 49% 0 mm
13:21 26.2 °C 15.3 °C 1017.2 hPa ENE 3.2 km/h 4.8 km/h 51% 0 mm
13:26 26.1 °C 15.2 °C 1016.8 hPa ENE 4.7 km/h 6.4 km/h 51% 0 mm
13:31 26.2 °C 15.3 °C 1016.8 hPa NE 1.4 km/h 4.8 km/h 51% 0 mm
13:36 26.2 °C 15 °C 1016.8 hPa ENE 3.2 km/h 12.9 km/h 50% 0 mm
13:41 25.8 °C 14.9 °C 1016.5 hPa Calm   3.2 km/h 51% 0 mm
13:46 25.7 °C 14.8 °C 1016.5 hPa Calm     51% 0 mm
13:51 25.8 °C 15.5 °C 1016.5 hPa ENE 3.2 km/h 4.8 km/h 53% 0 mm
13:56 26.1 °C 14.5 °C 1016.1 hPa NE 3.2 km/h 3.2 km/h 49% 0 mm
14:01 25.7 °C 14.5 °C 1016.1 hPa East 1.4 km/h 1.6 km/h 50% 0 mm
14:06 25.4 °C 14.8 °C 1016.1 hPa Calm   1.6 km/h 52% 0 mm
14:16 25.3 °C 15.9 °C 1016.1 hPa East 1.4 km/h 1.6 km/h 56% 0 mm
14:21 25.3 °C 14.7 °C 1016.1 hPa Calm   1.6 km/h 52% 0 mm
14:26 25.3 °C 14.1 °C 1015.8 hPa Calm   1.6 km/h 50% 0 mm
14:31 25.6 °C 15 °C 1015.8 hPa ENE 1.4 km/h 1.6 km/h 52% 0 mm
14:36 26 °C 14.8 °C 1015.5 hPa NE 4.7 km/h 6.4 km/h 50% 0 mm
14:41 26.4 °C 14.8 °C 1015.5 hPa ENE 3.2 km/h 4.8 km/h 49% 0 mm
14:48 26.8 °C 14.5 °C 1015.5 hPa West 1.4 km/h 3.2 km/h 47% 0 mm
14:51 26.8 °C 14.2 °C 1015.1 hPa Calm   1.6 km/h 46% 0 mm
15:01 26.7 °C 14.8 °C 1015.1 hPa Calm   3.2 km/h 48% 0 mm
15:06 26.6 °C 14.4 °C 1015.1 hPa Calm   1.6 km/h 47% 0 mm
15:11 26.6 °C 14.4 °C 1015.1 hPa Calm   1.6 km/h 47% 0 mm
15:16 26.6 °C 14.4 °C 1015.1 hPa Calm   1.6 km/h 47% 0 mm
15:21 26.2 °C 15 °C 1015.5 hPa Calm   3.2 km/h 50% 0 mm
15:26 25.6 °C 15.3 °C 1015.5 hPa Calm   1.6 km/h 53% 0 mm
15:31 25.2 °C 15.5 °C 1015.8 hPa ESE 1.4 km/h 1.6 km/h 55% 0 mm
15:36 24.6 °C 15.5 °C 1015.8 hPa Calm     57% 0 mm
15:41 24.4 °C 15.6 °C 1016.1 hPa Calm   1.6 km/h 58% 0 mm
15:46 23.9 °C 15.1 °C 1015.8 hPa Calm   4.8 km/h 58% 0 mm
15:47 23.8 °C 15 °C 1015.8 hPa Calm   1.6 km/h 58% 0 mm
15:52 23.4 °C 15.2 °C 1015.8 hPa SE 1.4 km/h 1.6 km/h 60% 0 mm
15:57 22.8 °C 15.1 °C 1015.5 hPa East 1.4 km/h 1.6 km/h 62% 0 mm
16:02 22.6 °C 15.7 °C 1015.5 hPa Calm   1.6 km/h 65% 0 mm
16:07 22.7 °C 15.8 °C 1015.1 hPa ESE 4.8 km/h 4.8 km/h 65% 0 mm
16:12 22.8 °C 15.6 °C 1015.1 hPa East 3.2 km/h 3.2 km/h 64% 0 mm
16:17 22.7 °C 15.3 °C 1015.1 hPa East 3.2 km/h 3.2 km/h 63% 0 mm
16:22 22.7 °C 15.5 °C 1015.1 hPa Calm   1.6 km/h 64% 0 mm
16:27 22.8 °C 15.9 °C 1014.8 hPa East 1.4 km/h 8 km/h 65% 0 mm
16:32 22.7 °C 16 °C 1014.8 hPa NNE 1.4 km/h 1.6 km/h 66% 0 mm
16:37 22.6 °C 16.2 °C 1014.8 hPa ENE 1.4 km/h 3.2 km/h 67% 0 mm
16:42 22.4 °C 16 °C 1014.8 hPa Calm   4.8 km/h 67% 0 mm
16:47 22.4 °C 16.4 °C 1014.8 hPa South 1.4 km/h 1.6 km/h 69% 0 mm
16:52 22.6 °C 16.2 °C 1014.8 hPa Calm   1.6 km/h 67% 0 mm
16:57 22.6 °C 16.2 °C 1014.4 hPa Calm   3.2 km/h 67% 0 mm
17:02 22.8 °C 16.4 °C 1014.4 hPa NE 3.2 km/h 3.2 km/h 67% 0 mm
17:07 22.8 °C 16.4 °C 1014.8 hPa Calm     67% 0 mm
17:13 22.8 °C 15.6 °C 1014.8 hPa Calm     64% 0 mm
17:18 22.9 °C 16 °C 1014.8 hPa Calm   1.6 km/h 65% 0 mm
17:23 23.1 °C 16.2 °C 1014.8 hPa Calm     65% 0 mm
17:28 23.1 °C 15.7 °C 1014.4 hPa Calm     63% 0 mm
17:33 23.1 °C 15.9 °C 1014.4 hPa ESE 1.4 km/h 1.6 km/h 64% 0 mm
17:38 22.7 °C 15.8 °C 1014.4 hPa Calm   4.8 km/h 65% 0 mm
17:41 22.6 °C 15.7 °C 1014.4 hPa Calm   1.6 km/h 65% 0 mm
17:46 22.4 °C 15.7 °C 1014.4 hPa Calm     66% 0 mm
17:51 22.4 °C 15.5 °C 1014.4 hPa Calm     65% 0 mm
17:56 22.3 °C 15.9 °C 1014.4 hPa Calm     67% 0 mm
18:01 22.2 °C 16 °C 1014.4 hPa Calm     68% 0 mm
18:06 22.2 °C 16.2 °C 1014.4 hPa Calm     69% 0 mm
18:11 22.1 °C 16.4 °C 1014.4 hPa Calm   1.6 km/h 70% 0 mm
18:21 21.4 °C 16.1 °C 1014.8 hPa ENE 4.7 km/h 6.4 km/h 72% 0 mm
18:26 20.7 °C 16.7 °C 1014.8 hPa Calm   1.6 km/h 78% 0 mm
18:32 20 °C 16.6 °C 1014.8 hPa Calm     81% 0 mm
18:37 19.6 °C 16.6 °C 1015.1 hPa Calm     83% 0.25 mm
18:42 19.2 °C 16.6 °C 1015.1 hPa Calm     85% 0.25 mm
18:47 18.9 °C 16.5 °C 1015.1 hPa Calm     86% 0.76 mm
18:52 18.6 °C 16.8 °C 1015.1 hPa Calm     89% 1.02 mm
18:57 18.3 °C 16.6 °C 1015.1 hPa Calm     90% 1.02 mm
19:02 18 °C 16.5 °C 1015.5 hPa Calm     91% 1.02 mm
19:07 17.8 °C 16.5 °C 1016.1 hPa Calm     92% 1.02 mm
19:12 17.7 °C 16.6 °C 1016.1 hPa Calm     93% 2.29 mm
19:17 17.6 °C 16.6 °C 1015.8 hPa NE 1.4 km/h 1.6 km/h 94% 3.05 mm
19:22 17.6 °C 16.8 °C 1015.5 hPa Calm   1.6 km/h 95% 3.81 mm
19:27 17.4 °C 16.6 °C 1015.5 hPa Calm   1.6 km/h 95% 4.32 mm
19:32 17.4 °C 16.6 °C 1015.5 hPa Calm     95% 4.32 mm
19:37 17.4 °C 16.8 °C 1015.5 hPa Calm   1.6 km/h 96% 4.06 mm
19:42 17.3 °C 16.7 °C 1015.5 hPa Calm     96% 4.06 mm
19:47 17.3 °C 16.7 °C 1015.5 hPa Calm     96% 3.56 mm
19:52 17.2 °C 16.6 °C 1015.8 hPa Calm   1.6 km/h 96% 3.3 mm
20:02 17.2 °C 16.6 °C 1016.1 hPa Calm   1.6 km/h 96% 3.56 mm
20:07 17.2 °C 16.6 °C 1015.8 hPa Calm     96% 3.56 mm
20:12 17.2 °C 16.6 °C 1016.1 hPa Calm     96% 2.03 mm
20:22 17.1 °C 16.6 °C 1016.1 hPa Calm     97% 4.83 mm
20:28 17.1 °C 16.6 °C 1016.1 hPa Calm     97% 4.32 mm
20:33 17 °C 16.5 °C 1016.1 hPa Calm     97% 4.32 mm
20:37 17.1 °C 16.6 °C 1016.1 hPa Calm     97% 4.32 mm
20:43 17 °C 16.5 °C 1016.1 hPa Calm     97% 4.57 mm
20:53 16.9 °C 16.4 °C 1016.1 hPa South 1.4 km/h 3.2 km/h 97% 4.83 mm
20:58 16.9 °C 16.4 °C 1016.1 hPa Calm     97% 4.57 mm
21:03 16.9 °C 16.4 °C 1016.1 hPa Calm     97% 4.57 mm
21:08 16.9 °C 16.4 °C 1016.1 hPa Calm   1.6 km/h 97% 4.57 mm
21:13 16.9 °C 16.4 °C 1016.1 hPa Calm     97% 4.57 mm
21:18 16.9 °C 16.4 °C 1016.1 hPa Calm   1.6 km/h 97% 2.03 mm
21:23 16.9 °C 16.4 °C 1016.1 hPa Calm   1.6 km/h 97% 0.76 mm
21:28 16.9 °C 16.4 °C 1015.8 hPa Calm     97% 1.02 mm
21:33 16.8 °C 16.3 °C 1016.1 hPa Calm   1.6 km/h 97% 1.02 mm
21:38 16.8 °C 16.3 °C 1016.1 hPa Calm     97% 1.02 mm
21:43 16.7 °C 16.2 °C 1016.1 hPa Calm     97% 0.76 mm
21:48 16.7 °C 16.2 °C 1016.1 hPa Calm   1.6 km/h 97% 0.51 mm
21:53 16.7 °C 16.2 °C 1016.1 hPa Calm     97% 0.51 mm
21:58 16.7 °C 16.4 °C 1016.1 hPa Calm   1.6 km/h 98% 0.76 mm
22:03 16.7 °C 16.4 °C 1016.1 hPa NNW 1.4 km/h 1.6 km/h 98% 0.76 mm
22:09 16.6 °C 16.3 °C 1016.5 hPa Calm     98% 0.76 mm
22:14 16.7 °C 16.4 °C 1016.5 hPa Calm   1.6 km/h 98% 0.76 mm
22:19 16.7 °C 16.4 °C 1016.1 hPa Calm     98% 1.02 mm
22:24 16.6 °C 16.3 °C 1016.1 hPa Calm     98% 0.76 mm
22:29 16.6 °C 16.3 °C 1016.1 hPa Calm     98% 0.51 mm
22:34 16.6 °C 16.3 °C 1016.5 hPa Calm     98% 0.51 mm
22:39 16.4 °C 16.1 °C 1016.1 hPa Calm     98% 0.51 mm
22:44 16.4 °C 16.1 °C 1016.1 hPa Calm     98% 0.51 mm
22:49 16.4 °C 16.1 °C 1016.1 hPa Calm     98% 0.51 mm
22:54 16.3 °C 16 °C 1016.1 hPa Calm     98% 0.51 mm
22:59 16.3 °C 16 °C 1016.1 hPa Calm     98% 0.25 mm
23:04 16.3 °C 16 °C 1016.1 hPa Calm     98% 0.25 mm
23:09 16.2 °C 15.9 °C 1016.1 hPa Calm     98% 0.25 mm
23:14 16.2 °C 15.9 °C 1016.1 hPa Calm     98% 0 mm
23:19 16.3 °C 16 °C 1016.1 hPa Calm     98% 0 mm
23:24 16.3 °C 16 °C 1016.1 hPa Calm     98% 0 mm
23:29 16.3 °C 16 °C 1016.1 hPa Calm     98% 0 mm
23:34 16.3 °C 16 °C 1016.1 hPa Calm   1.6 km/h 98% 0 mm
23:39 16.3 °C 16 °C 1016.1 hPa Calm     98% 0 mm
23:44 16.3 °C 16 °C 1016.1 hPa Calm     98% 0 mm
23:50 16.3 °C 16 °C 1016.1 hPa Calm     98% 0 mm
23:55 16.2 °C 15.9 °C 1016.1 hPa Calm     98% 0 mm
WheeWeather.com
Compliments of Weather Underground - 2.5 mb